Time;durP1;ratioP1;P1;durP2;ratioP2;P2;SDS_P1;SDS_P2;PMS_P1;PMS_P2;Temp;Humidity;BMP_temperature;BMP_pressure;BME280_temperature;BME280_humidity;BME280_pressure;Samples;Min_cycle;Max_cycle;Signal;HPM_P1;HPM_P2
2021/05/04 00:01:40;;;;;;;9.93;1.88;;;;;;;;;;5080340;28;33055;-75
2021/05/04 00:04:05;;;;;;;2.72;1.60;;;;;;;;;;5081644;28;32723;-74
2021/05/04 00:06:31;;;;;;;8.82;2.05;;;;;;;;;;5081066;28;32342;-72
2021/05/04 00:08:57;;;;;;;7.55;2.67;;;;;;;;;;5081473;28;31879;-71
2021/05/04 00:11:23;;;;;;;3.33;1.25;;;;;;;;;;5081521;28;32734;-71
2021/05/04 00:13:48;;;;;;;4.07;1.45;;;;;;;;;;5080142;28;32649;-71
2021/05/04 00:16:14;;;;;;;3.03;1.50;;;;;;;;;;5081478;28;32216;-71
2021/05/04 00:18:40;;;;;;;3.10;1.60;;;;;;;;;;5081408;28;32805;-71
2021/05/04 00:21:05;;;;;;;5.10;1.88;;;;;;;;;;5081135;28;32923;-72
2021/05/04 00:23:31;;;;;;;4.18;1.92;;;;;;;;;;5080032;28;32524;-72
2021/05/04 00:25:57;;;;;;;3.85;1.42;;;;;;;;;;5081031;28;33082;-71
2021/05/04 00:28:22;;;;;;;4.15;1.88;;;;;;;;;;5080694;28;31797;-71
2021/05/04 00:30:48;;;;;;;8.32;1.80;;;;;;;;;;5080095;28;32589;-71
2021/05/04 00:33:14;;;;;;;7.78;1.60;;;;;;;;;;5080703;28;33561;-73
2021/05/04 00:35:40;;;;;;;5.43;2.20;;;;;;;;;;5081103;28;32871;-74
2021/05/04 00:38:05;;;;;;;2.50;1.50;;;;;;;;;;5081131;28;32207;-74
2021/05/04 00:40:31;;;;;;;6.75;1.95;;;;;;;;;;5081253;28;32007;-73
2021/05/04 00:42:57;;;;;;;2.40;1.60;;;;;;;;;;5080334;28;33574;-71
2021/05/04 00:45:23;;;;;;;4.90;1.77;;;;;;;;;;5081003;28;32187;-70
2021/05/04 00:47:48;;;;;;;3.38;1.63;;;;;;;;;;5080849;28;31760;-69
2021/05/04 00:50:14;;;;;;;5.93;1.75;;;;;;;;;;5080906;28;32175;-71
2021/05/04 00:52:40;;;;;;;3.88;1.85;;;;;;;;;;5079496;28;33584;-72
2021/05/04 00:55:06;;;;;;;2.60;1.40;;;;;;;;;;5080803;28;32263;-71
2021/05/04 00:57:32;;;;;;;7.05;1.98;;;;;;;;;;5078613;28;31525;-70
2021/05/04 00:59:59;;;;;;;5.82;1.40;;;;;;;;;;5079630;28;32031;-70
2021/05/04 01:02:25;;;;;;;5.38;1.60;;;;;;;;;;5080582;28;33516;-74
2021/05/04 01:04:50;;;;;;;5.75;1.42;;;;;;;;;;5080519;28;32180;-70
2021/05/04 01:07:16;;;;;;;11.20;1.63;;;;;;;;;;5080462;28;32125;-74
2021/05/04 01:09:42;;;;;;;2.33;1.30;;;;;;;;;;5079881;28;32934;-70
2021/05/04 01:12:08;;;;;;;2.65;1.70;;;;;;;;;;5080185;28;32566;-73
2021/05/04 01:14:33;;;;;;;2.33;1.30;;;;;;;;;;5078675;28;31011;-70
2021/05/04 01:17:00;;;;;;;3.40;1.60;;;;;;;;;;5080561;28;31894;-72
2021/05/04 01:19:26;;;;;;;3.30;1.80;;;;;;;;;;5080358;28;33033;-73
2021/05/04 01:21:51;;;;;;;2.78;1.60;;;;;;;;;;5079479;28;32455;-71
2021/05/04 01:24:18;;;;;;;4.65;1.88;;;;;;;;;;5080267;28;32257;-74
2021/05/04 01:26:44;;;;;;;7.78;1.50;;;;;;;;;;5079896;28;31958;-74
2021/05/04 01:29:10;;;;;;;2.53;1.70;;;;;;;;;;5078383;28;32044;-74
2021/05/04 01:31:35;;;;;;;1.67;1.30;;;;;;;;;;5080337;28;32526;-74
2021/05/04 01:34:01;;;;;;;6.88;1.35;;;;;;;;;;5079778;28;32264;-74
2021/05/04 01:36:27;;;;;;;4.07;1.67;;;;;;;;;;5079472;28;31988;-74
2021/05/04 01:38:52;;;;;;;2.92;1.67;;;;;;;;;;5080428;28;31738;-73
2021/05/04 01:41:18;;;;;;;2.72;1.30;;;;;;;;;;5079394;28;33658;-73
2021/05/04 01:43:44;;;;;;;2.40;1.30;;;;;;;;;;5082176;28;33252;-73
2021/05/04 01:46:10;;;;;;;6.53;1.17;;;;;;;;;;5083198;28;31868;-74
2021/05/04 01:48:35;;;;;;;3.03;1.30;;;;;;;;;;5083187;28;32062;-74
2021/05/04 01:51:01;;;;;;;2.17;1.42;;;;;;;;;;5081441;28;31164;-74
2021/05/04 01:53:28;;;;;;;2.78;1.35;;;;;;;;;;5081974;28;32193;-74
2021/05/04 01:55:54;;;;;;;3.60;1.40;;;;;;;;;;5083474;28;31980;-74
2021/05/04 01:58:19;;;;;;;6.93;1.70;;;;;;;;;;5081606;28;32221;-74
2021/05/04 02:00:45;;;;;;;4.43;1.38;;;;;;;;;;5083068;28;33566;-74
2021/05/04 02:03:11;;;;;;;2.20;1.13;;;;;;;;;;5083450;28;32209;-74
2021/05/04 02:05:36;;;;;;;7.32;1.10;;;;;;;;;;5082963;28;31969;-74
2021/05/04 02:08:02;;;;;;;0.90;0.80;;;;;;;;;;5083204;28;32955;-71
2021/05/04 02:10:28;;;;;;;3.38;1.50;;;;;;;;;;5081267;28;31966;-72
2021/05/04 02:12:53;;;;;;;1.70;1.00;;;;;;;;;;5081935;28;32332;-71
2021/05/04 02:15:19;;;;;;;3.30;1.23;;;;;;;;;;5083264;28;32048;-71
2021/05/04 02:17:45;;;;;;;3.58;1.20;;;;;;;;;;5083148;28;32580;-70
2021/05/04 02:20:11;;;;;;;3.53;1.27;;;;;;;;;;5082652;28;32443;-71
2021/05/04 02:22:37;;;;;;;6.40;1.27;;;;;;;;;;5081512;28;32704;-70
2021/05/04 02:25:03;;;;;;;3.50;0.93;;;;;;;;;;5083111;28;32034;-70
2021/05/04 02:27:29;;;;;;;5.28;1.10;;;;;;;;;;5082634;28;32979;-71
2021/05/04 02:29:55;;;;;;;2.95;0.82;;;;;;;;;;5082005;28;32573;-70
2021/05/04 02:32:20;;;;;;;6.13;0.75;;;;;;;;;;5083340;28;32995;-72
2021/05/04 02:34:46;;;;;;;2.10;1.20;;;;;;;;;;5081893;28;32891;-70
2021/05/04 02:37:12;;;;;;;5.53;1.10;;;;;;;;;;5083024;28;31972;-71
2021/05/04 02:39:38;;;;;;;2.08;1.25;;;;;;;;;;5097135;28;32515;-70
2021/05/04 02:42:03;;;;;;;3.10;0.90;;;;;;;;;;5081862;28;32372;-72
2021/05/04 02:44:29;;;;;;;3.83;1.00;;;;;;;;;;5082275;28;32948;-72
2021/05/04 02:46:55;;;;;;;6.82;1.13;;;;;;;;;;5082525;28;31651;-73
2021/05/04 02:49:20;;;;;;;3.65;0.82;;;;;;;;;;5081885;28;32749;-72
2021/05/04 02:51:46;;;;;;;10.10;2.25;;;;;;;;;;5082606;28;33227;-73
2021/05/04 02:54:12;;;;;;;4.85;1.80;;;;;;;;;;5081945;28;31921;-71
2021/05/04 02:56:37;;;;;;;2.10;1.25;;;;;;;;;;5084432;28;31899;-71
2021/05/04 02:59:03;;;;;;;4.70;0.70;;;;;;;;;;5092368;28;34033;-72
2021/05/04 03:01:29;;;;;;;1.05;0.52;;;;;;;;;;5092483;28;32386;-70
2021/05/04 03:03:54;;;;;;;4.38;0.90;;;;;;;;;;5089739;28;31651;-71
2021/05/04 03:06:20;;;;;;;1.13;0.80;;;;;;;;;;5082672;28;32259;-71
2021/05/04 03:08:46;;;;;;;3.80;1.00;;;;;;;;;;5082741;28;33280;-70
2021/05/04 03:11:11;;;;;;;3.03;0.70;;;;;;;;;;5082549;28;32062;-71
2021/05/04 03:13:37;;;;;;;2.60;0.82;;;;;;;;;;5082159;28;32962;-72
2021/05/04 03:16:03;;;;;;;2.00;1.00;;;;;;;;;;5082150;28;31064;-73
2021/05/04 03:18:29;;;;;;;3.22;0.98;;;;;;;;;;5082277;28;33472;-72
2021/05/04 03:20:55;;;;;;;1.55;0.93;;;;;;;;;;5081961;28;32234;-73
2021/05/04 03:23:21;;;;;;;2.88;0.90;;;;;;;;;;5081658;28;31840;-71
2021/05/04 03:25:47;;;;;;;4.18;1.00;;;;;;;;;;5079621;28;30421;-70
2021/05/04 03:28:13;;;;;;;2.80;1.08;;;;;;;;;;5081887;28;33579;-71
2021/05/04 03:30:39;;;;;;;2.40;0.90;;;;;;;;;;5082157;28;32047;-72
2021/05/04 03:33:05;;;;;;;0.77;0.47;;;;;;;;;;5082238;28;31862;-71
2021/05/04 03:35:31;;;;;;;3.45;0.85;;;;;;;;;;5081985;28;32066;-70
2021/05/04 03:37:57;;;;;;;2.05;0.85;;;;;;;;;;5081887;28;32613;-71
2021/05/04 03:40:23;;;;;;;1.20;0.63;;;;;;;;;;5081971;28;32151;-71
2021/05/04 03:42:48;;;;;;;5.80;0.80;;;;;;;;;;5081844;28;31974;-73
2021/05/04 03:45:14;;;;;;;4.72;0.95;;;;;;;;;;5081813;28;32046;-74
2021/05/04 03:47:41;;;;;;;2.83;0.73;;;;;;;;;;5081006;28;32585;-72
2021/05/04 03:50:08;;;;;;;4.07;0.85;;;;;;;;;;5081147;28;32182;-71
2021/05/04 03:52:34;;;;;;;1.10;0.70;;;;;;;;;;5080558;28;31888;-72
2021/05/04 03:54:59;;;;;;;1.88;0.63;;;;;;;;;;5081741;28;32067;-72
2021/05/04 03:57:25;;;;;;;4.05;1.90;;;;;;;;;;5080551;28;32589;-72
2021/05/04 03:59:51;;;;;;;1.20;0.70;;;;;;;;;;5081383;28;32876;-73
2021/05/04 04:02:17;;;;;;;1.80;0.50;;;;;;;;;;5081511;28;32005;-68
2021/05/04 04:04:43;;;;;;;2.47;0.75;;;;;;;;;;5081317;28;31986;-71
2021/05/04 04:07:08;;;;;;;2.33;0.90;;;;;;;;;;5080366;28;32694;-71
2021/05/04 04:09:34;;;;;;;3.00;0.80;;;;;;;;;;5080990;28;32396;-70
2021/05/04 04:12:00;;;;;;;1.30;0.90;;;;;;;;;;5080788;28;31867;-71
2021/05/04 04:14:25;;;;;;;1.30;0.80;;;;;;;;;;5080667;28;32267;-71
2021/05/04 04:16:51;;;;;;;2.35;0.80;;;;;;;;;;5080771;28;32721;-70
2021/05/04 04:19:17;;;;;;;3.55;1.02;;;;;;;;;;5081507;28;32804;-73
2021/05/04 04:21:42;;;;;;;2.25;1.15;;;;;;;;;;5081191;28;31768;-74
2021/05/04 04:24:08;;;;;;;2.92;1.02;;;;;;;;;;5080122;28;32238;-74
2021/05/04 04:26:34;;;;;;;3.78;0.88;;;;;;;;;;5095618;28;31474;-75
2021/05/04 04:29:00;;;;;;;2.45;0.73;;;;;;;;;;5080763;28;33133;-73
2021/05/04 04:31:25;;;;;;;1.63;1.00;;;;;;;;;;5081296;28;31920;-73
2021/05/04 04:33:51;;;;;;;6.13;1.13;;;;;;;;;;5080860;28;32988;-73
2021/05/04 04:36:17;;;;;;;1.85;1.02;;;;;;;;;;5080568;28;32522;-72
2021/05/04 04:38:42;;;;;;;1.25;0.40;;;;;;;;;;5081052;28;32516;-73
2021/05/04 04:41:08;;;;;;;2.80;0.68;;;;;;;;;;5081134;28;32093;-73
2021/05/04 04:43:34;;;;;;;1.17;0.70;;;;;;;;;;5080047;28;31888;-73
2021/05/04 04:45:59;;;;;;;1.55;0.47;;;;;;;;;;5080332;28;33557;-72
2021/05/04 04:48:25;;;;;;;1.55;0.70;;;;;;;;;;5080573;28;32368;-73
2021/05/04 04:50:51;;;;;;;1.50;0.90;;;;;;;;;;5096168;28;30301;-73
2021/05/04 04:53:19;;;;;;;1.75;0.70;;;;;;;;;;5080169;28;33069;-73
2021/05/04 04:55:45;;;;;;;7.13;1.40;;;;;;;;;;5080306;28;32600;-73
2021/05/04 04:58:11;;;;;;;2.88;0.75;;;;;;;;;;5080174;28;33149;-73
2021/05/04 05:00:36;;;;;;;5.43;1.20;;;;;;;;;;5080232;28;32856;-73
2021/05/04 05:03:02;;;;;;;6.35;0.70;;;;;;;;;;5080964;28;32028;-73
2021/05/04 05:05:28;;;;;;;2.75;1.00;;;;;;;;;;5079903;28;32300;-73
2021/05/04 05:07:53;;;;;;;5.07;1.02;;;;;;;;;;5079867;28;32226;-73
2021/05/04 05:10:19;;;;;;;1.90;0.57;;;;;;;;;;5079953;28;31851;-72
2021/05/04 05:12:45;;;;;;;4.13;1.13;;;;;;;;;;5080642;28;32940;-73
2021/05/04 05:15:11;;;;;;;5.25;1.55;;;;;;;;;;5080521;28;33524;-72
2021/05/04 05:17:37;;;;;;;7.28;1.17;;;;;;;;;;5081191;28;33137;-72
2021/05/04 05:20:03;;;;;;;8.60;1.60;;;;;;;;;;5084101;28;31873;-70
2021/05/04 05:22:29;;;;;;;5.88;1.25;;;;;;;;;;5083884;28;32019;-72
2021/05/04 05:24:55;;;;;;;6.95;1.30;;;;;;;;;;5084080;28;32440;-73
2021/05/04 05:27:21;;;;;;;9.75;2.00;;;;;;;;;;5084588;28;33216;-70
2021/05/04 05:29:47;;;;;;;5.53;1.20;;;;;;;;;;5083008;28;31831;-73
2021/05/04 05:32:13;;;;;;;5.65;1.30;;;;;;;;;;5084492;28;31955;-71
2021/05/04 05:34:39;;;;;;;6.07;1.40;;;;;;;;;;5083704;28;32594;-76
2021/05/04 05:37:04;;;;;;;7.43;1.55;;;;;;;;;;5082754;28;32315;-73
2021/05/04 05:39:30;;;;;;;3.47;1.38;;;;;;;;;;5082277;28;32886;-76
2021/05/04 05:41:56;;;;;;;4.57;0.98;;;;;;;;;;5083332;28;31940;-70
2021/05/04 05:44:23;;;;;;;7.00;1.10;;;;;;;;;;5082672;28;32804;-71
2021/05/04 05:46:51;;;;;;;6.75;1.40;;;;;;;;;;5081755;28;30963;-76
2021/05/04 05:49:17;;;;;;;6.82;1.92;;;;;;;;;;5099040;28;31842;-69
2021/05/04 05:51:42;;;;;;;5.50;1.63;;;;;;;;;;5083429;28;32058;-77
2021/05/04 05:54:08;;;;;;;5.97;1.30;;;;;;;;;;5083362;28;32554;-74
2021/05/04 05:56:34;;;;;;;9.82;1.75;;;;;;;;;;5081940;28;32219;-76
2021/05/04 05:58:59;;;;;;;8.05;1.58;;;;;;;;;;5082816;28;32052;-76
2021/05/04 06:01:25;;;;;;;7.60;1.83;;;;;;;;;;5082883;28;31944;-76
2021/05/04 06:03:51;;;;;;;12.43;3.03;;;;;;;;;;5082773;28;33572;-76
2021/05/04 06:06:18;;;;;;;11.02;2.05;;;;;;;;;;5083062;28;32305;-74
2021/05/04 06:08:44;;;;;;;11.00;2.42;;;;;;;;;;5082842;28;32083;-75
2021/05/04 06:11:10;;;;;;;6.82;1.70;;;;;;;;;;5082924;28;31959;-73
2021/05/04 06:13:36;;;;;;;10.88;2.10;;;;;;;;;;5082206;28;32554;-74
2021/05/04 06:16:04;;;;;;;15.88;2.50;;;;;;;;;;5082355;28;32369;-75
2021/05/04 06:18:31;;;;;;;7.85;2.00;;;;;;;;;;5081620;28;32164;-74
2021/05/04 06:20:56;;;;;;;13.80;2.00;;;;;;;;;;5083125;28;32900;-72
2021/05/04 06:23:22;;;;;;;8.93;1.40;;;;;;;;;;5082175;28;32700;-70
2021/05/04 06:25:48;;;;;;;9.98;1.60;;;;;;;;;;5082251;28;32192;-72
2021/05/04 06:28:14;;;;;;;7.25;1.75;;;;;;;;;;5081854;28;32029;-73
2021/05/04 06:30:40;;;;;;;7.53;1.83;;;;;;;;;;5096837;28;31969;-74
2021/05/04 06:33:08;;;;;;;9.75;2.17;;;;;;;;;;5081801;28;32624;-73
2021/05/04 06:35:35;;;;;;;7.30;2.00;;;;;;;;;;5082350;28;31905;-73
2021/05/04 06:38:02;;;;;;;6.38;1.67;;;;;;;;;;5082240;28;32122;-74
2021/05/04 06:40:28;;;;;;;7.03;1.63;;;;;;;;;;5063671;28;32240;-77
2021/05/04 06:42:54;;;;;;;9.55;1.90;;;;;;;;;;5080293;28;32020;-77
2021/05/04 06:45:19;;;;;;;6.00;1.20;;;;;;;;;;5063415;28;32610;-76
2021/05/04 06:47:45;;;;;;;6.93;1.27;;;;;;;;;;5081983;28;31990;-76
2021/05/04 06:50:11;;;;;;;6.88;1.67;;;;;;;;;;5081826;28;32906;-78
2021/05/04 06:52:36;;;;;;;6.00;1.25;;;;;;;;;;5081038;28;32677;-78
2021/05/04 06:55:02;;;;;;;2.85;0.90;;;;;;;;;;5081759;28;32161;-72
2021/05/04 06:57:28;;;;;;;6.70;1.20;;;;;;;;;;5063733;28;32144;-77
2021/05/04 06:59:54;;;;;;;10.68;1.08;;;;;;;;;;5081675;28;32086;-77
2021/05/04 07:02:20;;;;;;;5.18;1.02;;;;;;;;;;5081712;28;32713;-77
2021/05/04 07:04:45;;;;;;;3.63;1.25;;;;;;;;;;5082916;28;33122;-76
2021/05/04 07:07:11;;;;;;;5.93;1.45;;;;;;;;;;5081773;28;32030;-76
2021/05/04 07:09:37;;;;;;;8.55;1.63;;;;;;;;;;5087900;28;31888;-74
2021/05/04 07:12:04;;;;;;;4.68;1.23;;;;;;;;;;5098086;28;32795;-73
2021/05/04 07:14:31;;;;;;;13.00;2.17;;;;;;;;;;5093016;28;32752;-75
2021/05/04 07:17:00;;;;;;;8.07;1.92;;;;;;;;;;5081925;28;31994;-76
2021/05/04 07:19:26;;;;;;;10.40;1.55;;;;;;;;;;5079230;28;32419;-75
2021/05/04 07:21:51;;;;;;;12.13;2.45;;;;;;;;;;5079303;28;30873;-75
2021/05/04 07:24:17;;;;;;;32.50;3.03;;;;;;;;;;5082095;28;32441;-70
2021/05/04 07:26:43;;;;;;;12.93;2.83;;;;;;;;;;5081824;28;31887;-73
2021/05/04 07:29:08;;;;;;;15.52;2.83;;;;;;;;;;5081532;28;32655;-77
2021/05/04 07:31:34;;;;;;;15.38;3.40;;;;;;;;;;5080565;28;32596;-77
2021/05/04 07:34:01;;;;;;;11.82;2.50;;;;;;;;;;5079623;28;30634;-74
2021/05/04 07:36:29;;;;;;;16.23;3.20;;;;;;;;;;5081440;28;20057;-73
2021/05/04 07:38:55;;;;;;;20.00;3.88;;;;;;;;;;5080773;28;32183;-73
2021/05/04 07:41:21;;;;;;;12.35;2.97;;;;;;;;;;5080472;28;33604;-71
2021/05/04 07:43:47;;;;;;;23.15;3.08;;;;;;;;;;5081212;28;32189;-78
2021/05/04 07:46:12;;;;;;;21.52;3.05;;;;;;;;;;5081635;28;32631;-77
2021/05/04 07:48:38;;;;;;;17.60;3.17;;;;;;;;;;5081344;28;32164;-77
2021/05/04 07:51:05;;;;;;;16.13;2.50;;;;;;;;;;5081405;28;32497;-75
2021/05/04 07:53:31;;;;;;;20.45;3.58;;;;;;;;;;5080522;28;32423;-77
2021/05/04 07:55:56;;;;;;;12.27;3.95;;;;;;;;;;5081044;28;31944;-77
2021/05/04 07:58:22;;;;;;;21.27;3.22;;;;;;;;;;5081037;28;32631;-77
2021/05/04 08:00:48;;;;;;;22.60;2.97;;;;;;;;;;5080226;28;32636;-78
2021/05/04 08:03:14;;;;;;;17.35;2.58;;;;;;;;;;5097177;28;33285;-78
2021/05/04 08:05:40;;;;;;;11.52;2.67;;;;;;;;;;5081106;28;32910;-78
2021/05/04 08:08:13;;;;;;;20.13;3.85;;;;;;;;;;5081040;28;32196;-78
2021/05/04 08:10:40;;;;;;;14.82;2.30;;;;;;;;;;5079153;28;32450;-78
2021/05/04 08:13:05;;;;;;;13.68;2.92;;;;;;;;;;5081173;28;33209;-75
2021/05/04 08:15:32;;;;;;;13.23;1.85;;;;;;;;;;5081095;28;32914;-75
2021/05/04 08:18:01;;;;;;;21.85;2.45;;;;;;;;;;5078087;28;32116;-76
2021/05/04 08:20:32;;;;;;;15.00;2.75;;;;;;;;;;5080728;28;33552;-76
2021/05/04 08:22:58;;;;;;;9.57;2.30;;;;;;;;;;5080370;28;32820;-76
2021/05/04 08:25:24;;;;;;;12.57;2.15;;;;;;;;;;5080302;28;31831;-76
2021/05/04 08:27:50;;;;;;;15.70;3.38;;;;;;;;;;5081051;28;32137;-76
2021/05/04 08:30:18;;;;;;;13.32;2.30;;;;;;;;;;5080417;28;32678;-77
2021/05/04 08:32:43;;;;;;;5.45;1.00;;;;;;;;;;5080636;28;32208;-75
2021/05/04 08:35:09;;;;;;;10.15;1.92;;;;;;;;;;5079722;28;31943;-74
2021/05/04 08:37:35;;;;;;;7.90;1.65;;;;;;;;;;5079664;28;32686;-74
2021/05/04 08:40:00;;;;;;;13.98;2.20;;;;;;;;;;5080861;28;32458;-77
2021/05/04 08:42:26;;;;;;;12.88;1.65;;;;;;;;;;5080117;28;33227;-77
2021/05/04 08:44:52;;;;;;;7.38;1.75;;;;;;;;;;5080593;28;31999;-77
2021/05/04 08:47:22;;;;;;;13.30;1.67;;;;;;;;;;5080481;28;32028;-77
2021/05/04 08:49:48;;;;;;;15.00;2.22;;;;;;;;;;5079854;28;32481;-75
2021/05/04 08:52:14;;;;;;;14.43;2.83;;;;;;;;;;5079416;28;32396;-74
2021/05/04 08:54:40;;;;;;;12.55;2.35;;;;;;;;;;5084123;28;32929;-75
2021/05/04 08:57:06;;;;;;;12.15;2.25;;;;;;;;;;5082856;28;31956;-76
2021/05/04 08:59:32;;;;;;;7.75;1.80;;;;;;;;;;5083658;28;32536;-76
2021/05/04 09:01:57;;;;;;;8.63;2.05;;;;;;;;;;5083259;28;33152;-74
2021/05/04 09:05:05;;;;;;;7.85;1.88;;;;;;;;;;5083901;28;32060;-71
2021/05/04 09:07:31;;;;;;;8.85;2.22;;;;;;;;;;5080300;28;33150;-74
2021/05/04 09:19:36;;;;;;;12.43;1.80;;;;;;;;;;5020984;28;32096;-73
2021/05/04 09:21:36;;;;;;;4.97;1.40;;;;;;;;;;5057698;28;31245;-76
2021/05/04 09:24:18;;;;;;;13.68;2.72;;;;;;;;;;5082721;28;32413;-75
2021/05/04 09:26:44;;;;;;;9.82;1.90;;;;;;;;;;5083112;28;32929;-74
2021/05/04 09:29:10;;;;;;;7.55;1.48;;;;;;;;;;5083315;28;32022;-73
2021/05/04 09:31:37;;;;;;;4.82;0.98;;;;;;;;;;5083270;28;32689;-72
2021/05/04 09:34:07;;;;;;;7.88;1.88;;;;;;;;;;5083055;28;33095;-72
2021/05/04 09:36:40;;;;;;;9.60;2.08;;;;;;;;;;5081817;28;30961;-73
2021/05/04 09:39:06;;;;;;;8.68;1.73;;;;;;;;;;5083508;28;32189;-73
2021/05/04 09:41:32;;;;;;;6.85;1.27;;;;;;;;;;5083330;28;32712;-74
2021/05/04 09:43:58;;;;;;;6.93;1.52;;;;;;;;;;5083382;28;33030;-74
2021/05/04 09:46:43;;;;;;;4.65;1.33;;;;;;;;;;5082562;28;31809;-72
2021/05/04 09:49:28;;;;;;;2.88;0.90;;;;;;;;;;5082713;28;31901;-74
2021/05/04 09:51:56;;;;;;;5.72;1.48;;;;;;;;;;5083134;28;33184;-74
2021/05/04 09:54:27;;;;;;;12.00;1.75;;;;;;;;;;5082824;28;32211;-73
2021/05/04 09:56:55;;;;;;;10.75;1.70;;;;;;;;;;5084817;28;31940;-68
2021/05/04 09:59:23;;;;;;;8.00;0.95;;;;;;;;;;5065790;28;32256;-74
2021/05/04 10:01:49;;;;;;;10.90;1.65;;;;;;;;;;5082652;28;33525;-73
2021/05/04 10:04:16;;;;;;;4.07;1.10;;;;;;;;;;5081830;28;32215;-75
2021/05/04 10:06:42;;;;;;;4.05;1.55;;;;;;;;;;5082998;28;32823;-74
2021/05/04 10:09:08;;;;;;;3.95;1.42;;;;;;;;;;5081458;28;30167;-73
2021/05/04 10:11:34;;;;;;;9.27;1.50;;;;;;;;;;5086205;28;33571;-71
2021/05/04 10:14:00;;;;;;;;;;;;;;;;;;5084204;28;30442;-73
2021/05/04 10:16:25;;;;;;;;;;;;;;;;;;5084558;28;32333;-73
2021/05/04 10:18:51;;;;;;;;;;;;;;;;;;5083689;28;32338;-73
2021/05/04 10:21:16;;;;;;;;;;;;;;;;;;5083500;28;32673;-73
2021/05/04 10:23:45;;;;;;;;;;;;;;;;;;5083410;28;33419;-73
2021/05/04 10:26:15;;;;;;;;;;;;;;;;;;5098702;28;32664;-73
2021/05/04 10:28:40;;;;;;;;;;;;;;;;;;5083886;28;32386;-75
2021/05/04 10:31:05;;;;;;;;;;;;;;;;;;5084245;28;32735;-73
2021/05/04 10:33:31;;;;;;;;;;;;;;;;;;5084615;28;32489;-73
2021/05/04 10:35:57;;;;;;;;;;;;;;;;;;5082865;28;31762;-73
2021/05/04 10:38:22;;;;;;;;;;;;;;;;;;5084405;28;32246;-73
2021/05/04 10:40:48;;;;;;;;;;;;;;;;;;5083420;28;33801;-77
2021/05/04 10:43:13;;;;;;;;;;;;;;;;;;5098451;28;32590;-70
2021/05/04 10:45:39;;;;;;;;;;;;;;;;;;5082585;28;30899;-73
2021/05/04 10:48:04;;;;;;;;;;;;;;;;;;5083270;28;33086;-70
2021/05/04 10:50:48;;;;;;;54.65;26.00;;;;;;;;;;5083439;28;33931;-67
2021/05/04 10:53:15;;;;;;;8.70;1.48;;;;;;;;;;5082213;28;32423;-69
2021/05/04 10:55:53;;;;;;;5.38;1.25;;;;;;;;;;5081631;28;32537;-69
2021/05/04 10:58:20;;;;;;;75.40;11.60;;;;;;;;;;5081338;28;31826;-69
2021/05/04 11:00:48;;;;;;;5.47;1.67;;;;;;;;;;5079194;28;31567;-68
2021/05/04 11:03:37;;;;;;;4.30;0.82;;;;;;;;;;5081002;28;32243;-67
2021/05/04 11:06:03;;;;;;;16.17;1.65;;;;;;;;;;5070155;28;32919;-70
2021/05/04 11:08:41;;;;;;;3.58;0.93;;;;;;;;;;5082134;28;31849;-70
2021/05/04 11:11:20;;;;;;;1.40;0.70;;;;;;;;;;5082109;28;33280;-67
2021/05/04 11:13:46;;;;;;;13.50;2.55;;;;;;;;;;5081842;28;32129;-70
2021/05/04 11:16:30;;;;;;;2.58;1.17;;;;;;;;;;5081837;28;31977;-75
2021/05/04 11:18:56;;;;;;;;;;;;;;;;;;5084027;28;32990;-76
2021/05/04 11:21:37;;;;;;;8.23;1.85;;;;;;;;;;5087002;28;32667;-77
2021/05/04 11:24:13;;;;;;;14.30;2.55;;;;;;;;;;5092437;28;33193;-74
2021/05/04 11:26:48;;;;;;;11.90;1.95;;;;;;;;;;5088652;28;32128;-77
2021/05/04 11:29:17;;;;;;;7.82;1.88;;;;;;;;;;5083680;28;32155;-71
2021/05/04 11:31:44;;;;;;;7.28;1.25;;;;;;;;;;5082488;28;32831;-72
2021/05/04 11:34:28;;;;;;;8.57;1.58;;;;;;;;;;5082071;28;32112;-72
2021/05/04 11:36:54;;;;;;;7.40;1.70;;;;;;;;;;5082688;28;31559;-72
2021/05/04 11:39:19;;;;;;;12.65;1.98;;;;;;;;;;5081464;28;31997;-72
2021/05/04 11:41:55;;;;;;;4.57;1.25;;;;;;;;;;5097054;28;30856;-74
2021/05/04 11:44:27;;;;;;;8.57;1.70;;;;;;;;;;5080645;28;32540;-73
2021/05/04 11:46:56;;;;;;;6.88;1.65;;;;;;;;;;5081648;28;36971;-73
2021/05/04 11:49:29;;;;;;;6.97;1.75;;;;;;;;;;5082150;28;32170;-72
2021/05/04 11:52:07;;;;;;;9.03;1.60;;;;;;;;;;5081903;28;32686;-73
2021/05/04 11:54:33;;;;;;;10.30;1.65;;;;;;;;;;5080177;28;32334;-71
2021/05/04 11:57:00;;;;;;;13.50;1.60;;;;;;;;;;5081249;28;31960;-73
2021/05/04 11:59:26;;;;;;;16.67;1.95;;;;;;;;;;5080481;28;32954;-72
2021/05/04 12:01:52;;;;;;;8.50;1.52;;;;;;;;;;5081601;28;32610;-72
2021/05/04 12:04:18;;;;;;;15.05;1.73;;;;;;;;;;5081164;28;33127;-74
2021/05/04 12:06:45;;;;;;;16.38;2.20;;;;;;;;;;5078964;28;30451;-73
2021/05/04 12:09:11;;;;;;;6.82;1.30;;;;;;;;;;5080990;28;31993;-72
2021/05/04 12:11:37;;;;;;;11.40;3.92;;;;;;;;;;5080777;28;32583;-70
2021/05/04 12:14:03;;;;;;;7.05;1.25;;;;;;;;;;5097052;28;32869;-71
2021/05/04 12:16:29;;;;;;;8.27;1.40;;;;;;;;;;5080312;28;32692;-72
2021/05/04 12:18:54;;;;;;;7.57;2.08;;;;;;;;;;5081447;28;32150;-71
2021/05/04 12:21:24;;;;;;;6.35;1.50;;;;;;;;;;5080822;28;33620;-71
2021/05/04 12:23:50;;;;;;;7.68;1.55;;;;;;;;;;5080375;28;32228;-72
2021/05/04 12:26:18;;;;;;;14.75;1.90;;;;;;;;;;5080129;28;31715;-71
2021/05/04 12:28:47;;;;;;;9.32;1.67;;;;;;;;;;5079086;28;32085;-73
2021/05/04 12:31:15;;;;;;;11.88;1.08;;;;;;;;;;5080912;28;32628;-71
2021/05/04 12:33:44;;;;;;;9.13;1.70;;;;;;;;;;5080911;28;32252;-74
2021/05/04 12:36:21;;;;;;;7.50;1.65;;;;;;;;;;5080795;28;31815;-75
2021/05/04 12:41:18;;;;;;;13.77;1.73;;;;;;;;;;5081161;28;32442;-77
2021/05/04 12:44:03;;;;;;;9.80;1.13;;;;;;;;;;5080297;28;32367;-74
2021/05/04 12:46:32;;;;;;;11.93;1.85;;;;;;;;;;5080998;28;32913;-77
2021/05/04 12:49:00;;;;;;;6.00;1.30;;;;;;;;;;5080699;28;31926;-74
2021/05/04 12:51:30;;;;;;;11.00;1.88;;;;;;;;;;5080758;28;33563;-77
2021/05/04 12:54:05;;;;;;;13.75;2.35;;;;;;;;;;5079708;28;32179;-78
2021/05/04 12:56:32;;;;;;;14.80;1.60;;;;;;;;;;5080172;28;31844;-76
2021/05/04 12:59:03;;;;;;;16.35;2.00;;;;;;;;;;5079735;28;32944;-77
2021/05/04 13:01:30;;;;;;;8.95;1.60;;;;;;;;;;5080314;28;33457;-78
2021/05/04 13:03:57;;;;;;;10.18;1.88;;;;;;;;;;5079958;28;33212;-78
2021/05/04 13:06:26;;;;;;;8.82;1.45;;;;;;;;;;5080708;28;32769;-76
2021/05/04 13:08:54;;;;;;;7.60;1.48;;;;;;;;;;5080104;28;32106;-76
2021/05/04 13:11:34;;;;;;;8.80;1.77;;;;;;;;;;5080663;28;32587;-75
2021/05/04 13:14:16;;;;;;;7.07;1.42;;;;;;;;;;5079609;28;32170;-73
2021/05/04 13:30:45;;;;;;;10.85;1.83;;;;;;;;;;5079795;28;33001;-76
2021/05/04 13:33:14;;;;;;;11.55;2.25;;;;;;;;;;5080386;28;32847;-76
2021/05/04 13:36:03;;;;;;;18.52;2.17;;;;;;;;;;5079290;28;32339;-73
2021/05/04 13:49:07;;;;;;;10.98;1.70;;;;;;;;;;5080913;28;31687;-71
2021/05/04 13:51:33;;;;;;;14.35;1.60;;;;;;;;;;5082764;28;32409;-71
2021/05/04 13:53:59;;;;;;;8.82;1.67;;;;;;;;;;5083298;28;32534;-73
2021/05/04 13:56:24;;;;;;;13.20;1.63;;;;;;;;;;5083043;28;32359;-73
2021/05/04 13:58:51;;;;;;;6.50;1.52;;;;;;;;;;5083212;28;32588;-73
2021/05/04 14:01:22;;;;;;;17.80;1.85;;;;;;;;;;5083420;28;32726;-72
2021/05/04 14:15:19;;;;;;;19.67;3.25;;;;;;;;;;5080438;28;33351;-72
2021/05/04 14:28:00;;;;;;;16.73;1.98;;;;;;;;;;5080342;28;33129;-71
2021/05/04 14:30:25;;;;;;;8.60;1.45;;;;;;;;;;5082991;28;31885;-71
2021/05/04 14:32:51;;;;;;;11.60;2.10;;;;;;;;;;5083079;28;32619;-70
2021/05/04 14:35:32;;;;;;;11.45;1.58;;;;;;;;;;5082936;28;32629;-71
2021/05/04 14:43:36;;;;;;;10.43;2.60;;;;;;;;;;5079959;28;32995;-71
2021/05/04 14:59:48;;;;;;;16.02;3.20;;;;;;;;;;5081209;28;32349;-76
2021/05/04 15:02:14;;;;;;;15.43;1.92;;;;;;;;;;5082449;28;31936;-76
2021/05/04 15:04:43;;;;;;;18.55;1.98;;;;;;;;;;5082428;28;32124;-76
2021/05/04 15:07:09;;;;;;;15.10;2.25;;;;;;;;;;5081656;28;33184;-77
2021/05/04 15:09:35;;;;;;;14.90;2.15;;;;;;;;;;5081887;28;33112;-76
2021/05/04 15:12:00;;;;;;;12.25;2.15;;;;;;;;;;5082401;28;32081;-76
2021/05/04 15:17:10;;;;;;;9.15;2.47;;;;;;;;;;5081453;28;33493;-77
2021/05/04 15:22:19;;;;;;;;;;;;;;;;;;5081458;28;31848;-76
2021/05/04 15:24:45;;;;;;;15.25;2.22;;;;;;;;;;5081120;28;33216;-76
2021/05/04 15:27:13;;;;;;;20.98;2.38;;;;;;;;;;5081600;28;32549;-76
2021/05/04 15:29:38;;;;;;;14.95;2.03;;;;;;;;;;5081443;28;32446;-76
2021/05/04 15:32:12;;;;;;;7.90;2.38;;;;;;;;;;5082541;28;32588;-76
2021/05/04 15:34:38;;;;;;;4.82;1.38;;;;;;;;;;5084983;28;32907;-77
2021/05/04 15:37:04;;;;;;;22.52;2.17;;;;;;;;;;5090785;28;32648;-76
2021/05/04 15:39:29;;;;;;;7.90;2.08;;;;;;;;;;5091324;28;31896;-77
2021/05/04 15:41:55;;;;;;;8.65;2.17;;;;;;;;;;5082901;28;32797;-72
2021/05/04 15:44:23;;;;;;;3.30;1.20;;;;;;;;;;5081425;28;32238;-73
2021/05/04 15:49:32;;;;;;;5.72;0.98;;;;;;;;;;5081183;28;35538;-72
2021/05/04 15:54:40;;;;;;;6.07;1.00;;;;;;;;;;5081134;28;32208;-71
2021/05/04 16:10:32;;;;;;;1.45;0.55;;;;;;;;;;5081217;28;32276;-72
2021/05/04 16:12:58;;;;;;;2.70;0.80;;;;;;;;;;5081124;28;32700;-71
2021/05/04 16:15:24;;;;;;;3.13;0.70;;;;;;;;;;5078975;28;30414;-72
2021/05/04 16:17:49;;;;;;;2.05;0.60;;;;;;;;;;5080860;28;32552;-71
2021/05/04 16:23:05;;;;;;;4.43;0.80;;;;;;;;;;5080135;28;32042;-71
2021/05/04 16:25:48;;;;;;;3.35;1.00;;;;;;;;;;5079873;28;33021;-72
2021/05/04 16:28:22;;;;;;;4.70;0.68;;;;;;;;;;5080584;28;32410;-71
2021/05/04 16:30:47;;;;;;;1.55;0.60;;;;;;;;;;5078274;28;33130;-71